sensor_id;sensor_type;location;lat;lon;timestamp;P1;durP1;ratioP1;P2;durP2;ratioP2
66886;SDS011;67239;51.680;5.976;2023-03-23T00:01:12;5.80;;;2.92;;
66886;SDS011;67239;51.680;5.976;2023-03-23T00:03:45;4.15;;;2.15;;
66886;SDS011;67239;51.680;5.976;2023-03-23T00:06:17;3.60;;;2.30;;
66886;SDS011;67239;51.680;5.976;2023-03-23T00:08:46;4.15;;;2.75;;
66886;SDS011;67239;51.680;5.976;2023-03-23T00:11:19;5.40;;;2.70;;
66886;SDS011;67239;51.680;5.976;2023-03-23T00:13:48;4.50;;;2.58;;
66886;SDS011;67239;51.680;5.976;2023-03-23T00:16:19;5.60;;;2.45;;
66886;SDS011;67239;51.680;5.976;2023-03-23T00:18:55;4.88;;;2.47;;
66886;SDS011;67239;51.680;5.976;2023-03-23T00:21:23;4.47;;;2.40;;
66886;SDS011;67239;51.680;5.976;2023-03-23T00:24:11;8.27;;;2.10;;
66886;SDS011;67239;51.680;5.976;2023-03-23T00:26:43;4.43;;;2.25;;
66886;SDS011;67239;51.680;5.976;2023-03-23T00:29:12;4.95;;;2.50;;
66886;SDS011;67239;51.680;5.976;2023-03-23T00:31:40;3.53;;;2.00;;
66886;SDS011;67239;51.680;5.976;2023-03-23T00:34:13;6.78;;;2.60;;
66886;SDS011;67239;51.680;5.976;2023-03-23T00:36:44;4.93;;;2.28;;
66886;SDS011;67239;51.680;5.976;2023-03-23T00:39:13;4.32;;;2.25;;
66886;SDS011;67239;51.680;5.976;2023-03-23T00:41:42;4.60;;;2.50;;
66886;SDS011;67239;51.680;5.976;2023-03-23T00:44:10;5.65;;;2.28;;
66886;SDS011;67239;51.680;5.976;2023-03-23T00:46:48;3.83;;;2.60;;
66886;SDS011;67239;51.680;5.976;2023-03-23T00:49:20;4.18;;;2.65;;
66886;SDS011;67239;51.680;5.976;2023-03-23T00:51:53;3.30;;;2.40;;
66886;SDS011;67239;51.680;5.976;2023-03-23T00:54:22;5.57;;;2.50;;
66886;SDS011;67239;51.680;5.976;2023-03-23T00:56:50;4.60;;;2.42;;
66886;SDS011;67239;51.680;5.976;2023-03-23T00:59:17;3.67;;;2.33;;
66886;SDS011;67239;51.680;5.976;2023-03-23T01:01:44;4.80;;;2.40;;
66886;SDS011;67239;51.680;5.976;2023-03-23T01:04:12;3.72;;;2.20;;
66886;SDS011;67239;51.680;5.976;2023-03-23T01:06:41;6.97;;;2.53;;
66886;SDS011;67239;51.680;5.976;2023-03-23T01:09:13;4.15;;;2.40;;
66886;SDS011;67239;51.680;5.976;2023-03-23T01:11:42;3.40;;;2.30;;
66886;SDS011;67239;51.680;5.976;2023-03-23T01:14:10;7.40;;;2.50;;
66886;SDS011;67239;51.680;5.976;2023-03-23T01:16:38;3.97;;;2.47;;
66886;SDS011;67239;51.680;5.976;2023-03-23T01:19:04;4.10;;;2.72;;
66886;SDS011;67239;51.680;5.976;2023-03-23T01:21:30;4.68;;;2.40;;
66886;SDS011;67239;51.680;5.976;2023-03-23T01:23:57;3.92;;;2.20;;
66886;SDS011;67239;51.680;5.976;2023-03-23T01:26:24;5.47;;;2.10;;
66886;SDS011;67239;51.680;5.976;2023-03-23T01:28:53;3.83;;;2.35;;
66886;SDS011;67239;51.680;5.976;2023-03-23T01:31:24;7.47;;;2.45;;
66886;SDS011;67239;51.680;5.976;2023-03-23T01:33:51;5.28;;;2.63;;
66886;SDS011;67239;51.680;5.976;2023-03-23T01:36:20;4.55;;;2.60;;
66886;SDS011;67239;51.680;5.976;2023-03-23T01:38:50;5.32;;;2.50;;
66886;SDS011;67239;51.680;5.976;2023-03-23T01:41:16;3.55;;;2.60;;
66886;SDS011;67239;51.680;5.976;2023-03-23T01:44:04;3.42;;;2.45;;
66886;SDS011;67239;51.680;5.976;2023-03-23T01:47:00;4.10;;;2.20;;
66886;SDS011;67239;51.680;5.976;2023-03-23T01:49:31;5.05;;;2.47;;
66886;SDS011;67239;51.680;5.976;2023-03-23T01:52:07;4.28;;;2.83;;
66886;SDS011;67239;51.680;5.976;2023-03-23T01:54:44;4.05;;;2.75;;
66886;SDS011;67239;51.680;5.976;2023-03-23T01:57:15;4.45;;;2.70;;
66886;SDS011;67239;51.680;5.976;2023-03-23T01:59:45;4.47;;;2.72;;
66886;SDS011;67239;51.680;5.976;2023-03-23T02:02:21;4.13;;;2.75;;
66886;SDS011;67239;51.680;5.976;2023-03-23T02:04:50;5.80;;;2.75;;
66886;SDS011;67239;51.680;5.976;2023-03-23T02:07:26;4.68;;;2.90;;
66886;SDS011;67239;51.680;5.976;2023-03-23T02:09:55;4.50;;;2.60;;
66886;SDS011;67239;51.680;5.976;2023-03-23T02:12:21;3.85;;;2.55;;
66886;SDS011;67239;51.680;5.976;2023-03-23T02:14:49;4.20;;;2.72;;
66886;SDS011;67239;51.680;5.976;2023-03-23T02:17:28;3.25;;;2.50;;
66886;SDS011;67239;51.680;5.976;2023-03-23T02:23:26;3.63;;;2.60;;
66886;SDS011;67239;51.680;5.976;2023-03-23T02:26:19;4.07;;;2.63;;
66886;SDS011;67239;51.680;5.976;2023-03-23T02:34:37;3.53;;;2.38;;
66886;SDS011;67239;51.680;5.976;2023-03-23T02:37:09;2.85;;;2.30;;
66886;SDS011;67239;51.680;5.976;2023-03-23T02:39:45;3.85;;;2.60;;
66886;SDS011;67239;51.680;5.976;2023-03-23T02:42:23;3.92;;;2.65;;
66886;SDS011;67239;51.680;5.976;2023-03-23T02:44:58;3.22;;;2.30;;
66886;SDS011;67239;51.680;5.976;2023-03-23T02:47:31;4.85;;;2.70;;
66886;SDS011;67239;51.680;5.976;2023-03-23T02:50:01;4.60;;;2.60;;
66886;SDS011;67239;51.680;5.976;2023-03-23T02:52:31;5.47;;;2.55;;
66886;SDS011;67239;51.680;5.976;2023-03-23T02:55:02;3.90;;;2.60;;
66886;SDS011;67239;51.680;5.976;2023-03-23T02:57:30;4.07;;;2.40;;
66886;SDS011;67239;51.680;5.976;2023-03-23T02:59:59;7.07;;;2.88;;
66886;SDS011;67239;51.680;5.976;2023-03-23T03:02:29;5.40;;;2.65;;
66886;SDS011;67239;51.680;5.976;2023-03-23T03:05:10;4.97;;;2.60;;
66886;SDS011;67239;51.680;5.976;2023-03-23T03:11:08;6.38;;;2.65;;
66886;SDS011;67239;51.680;5.976;2023-03-23T03:13:47;4.82;;;2.47;;
66886;SDS011;67239;51.680;5.976;2023-03-23T03:17:09;3.88;;;2.40;;
66886;SDS011;67239;51.680;5.976;2023-03-23T03:22:14;3.80;;;2.50;;
66886;SDS011;67239;51.680;5.976;2023-03-23T03:24:42;3.72;;;2.47;;
66886;SDS011;67239;51.680;5.976;2023-03-23T03:27:16;5.13;;;2.90;;
66886;SDS011;67239;51.680;5.976;2023-03-23T03:29:57;3.25;;;2.33;;
66886;SDS011;67239;51.680;5.976;2023-03-23T03:32:40;3.70;;;2.45;;
66886;SDS011;67239;51.680;5.976;2023-03-23T03:35:14;5.03;;;2.72;;
66886;SDS011;67239;51.680;5.976;2023-03-23T03:37:41;4.10;;;2.70;;
66886;SDS011;67239;51.680;5.976;2023-03-23T03:40:09;3.67;;;2.78;;
66886;SDS011;67239;51.680;5.976;2023-03-23T03:42:40;3.80;;;2.60;;
66886;SDS011;67239;51.680;5.976;2023-03-23T03:45:10;5.82;;;2.80;;
66886;SDS011;67239;51.680;5.976;2023-03-23T03:47:40;3.05;;;2.30;;
66886;SDS011;67239;51.680;5.976;2023-03-23T03:50:06;6.45;;;2.70;;
66886;SDS011;67239;51.680;5.976;2023-03-23T03:52:33;3.55;;;2.40;;
66886;SDS011;67239;51.680;5.976;2023-03-23T03:54:59;4.10;;;2.50;;
66886;SDS011;67239;51.680;5.976;2023-03-23T03:57:26;3.50;;;2.72;;
66886;SDS011;67239;51.680;5.976;2023-03-23T04:00:05;5.00;;;3.15;;
66886;SDS011;67239;51.680;5.976;2023-03-23T04:02:43;3.50;;;2.70;;
66886;SDS011;67239;51.680;5.976;2023-03-23T04:05:39;4.13;;;2.67;;
66886;SDS011;67239;51.680;5.976;2023-03-23T04:08:05;3.40;;;2.78;;
66886;SDS011;67239;51.680;5.976;2023-03-23T04:10:31;4.57;;;2.70;;
66886;SDS011;67239;51.680;5.976;2023-03-23T04:12:59;4.15;;;2.75;;
66886;SDS011;67239;51.680;5.976;2023-03-23T04:15:44;4.82;;;2.70;;
66886;SDS011;67239;51.680;5.976;2023-03-23T04:18:12;4.13;;;2.53;;
66886;SDS011;67239;51.680;5.976;2023-03-23T04:20:41;3.83;;;2.80;;
66886;SDS011;67239;51.680;5.976;2023-03-23T04:23:08;4.93;;;2.50;;
66886;SDS011;67239;51.680;5.976;2023-03-23T04:25:34;4.32;;;2.30;;
66886;SDS011;67239;51.680;5.976;2023-03-23T04:28:02;4.30;;;2.55;;
66886;SDS011;67239;51.680;5.976;2023-03-23T04:30:34;5.00;;;2.72;;
66886;SDS011;67239;51.680;5.976;2023-03-23T04:33:06;3.42;;;2.47;;
66886;SDS011;67239;51.680;5.976;2023-03-23T04:35:32;4.57;;;2.45;;
66886;SDS011;67239;51.680;5.976;2023-03-23T04:38:12;3.05;;;2.28;;
66886;SDS011;67239;51.680;5.976;2023-03-23T04:40:43;5.15;;;2.35;;
66886;SDS011;67239;51.680;5.976;2023-03-23T04:43:22;3.20;;;2.20;;
66886;SDS011;67239;51.680;5.976;2023-03-23T04:45:55;4.10;;;2.08;;
66886;SDS011;67239;51.680;5.976;2023-03-23T04:48:29;3.20;;;2.15;;
66886;SDS011;67239;51.680;5.976;2023-03-23T04:51:18;5.57;;;1.92;;
66886;SDS011;67239;51.680;5.976;2023-03-23T04:53:47;3.28;;;1.88;;
66886;SDS011;67239;51.680;5.976;2023-03-23T04:56:13;7.57;;;2.35;;
66886;SDS011;67239;51.680;5.976;2023-03-23T04:58:43;5.00;;;2.10;;
66886;SDS011;67239;51.680;5.976;2023-03-23T05:01:33;7.28;;;1.73;;
66886;SDS011;67239;51.680;5.976;2023-03-23T05:04:13;7.95;;;1.90;;
66886;SDS011;67239;51.680;5.976;2023-03-23T05:06:44;3.55;;;1.60;;
66886;SDS011;67239;51.680;5.976;2023-03-23T05:09:17;6.95;;;2.10;;
66886;SDS011;67239;51.680;5.976;2023-03-23T05:11:43;7.15;;;1.60;;
66886;SDS011;67239;51.680;5.976;2023-03-23T05:14:10;6.70;;;1.80;;
66886;SDS011;67239;51.680;5.976;2023-03-23T05:16:37;7.20;;;1.95;;
66886;SDS011;67239;51.680;5.976;2023-03-23T05:19:03;4.82;;;1.55;;
66886;SDS011;67239;51.680;5.976;2023-03-23T05:21:31;6.50;;;1.50;;
66886;SDS011;67239;51.680;5.976;2023-03-23T05:23:57;6.05;;;1.55;;
66886;SDS011;67239;51.680;5.976;2023-03-23T05:26:26;6.22;;;1.60;;
66886;SDS011;67239;51.680;5.976;2023-03-23T05:29:03;6.03;;;1.60;;
66886;SDS011;67239;51.680;5.976;2023-03-23T05:31:41;5.60;;;1.73;;
66886;SDS011;67239;51.680;5.976;2023-03-23T05:34:07;5.93;;;1.60;;
66886;SDS011;67239;51.680;5.976;2023-03-23T05:36:39;7.30;;;1.70;;
66886;SDS011;67239;51.680;5.976;2023-03-23T05:39:11;5.53;;;2.03;;
66886;SDS011;67239;51.680;5.976;2023-03-23T05:41:59;6.05;;;1.60;;
66886;SDS011;67239;51.680;5.976;2023-03-23T05:47:00;8.75;;;1.90;;
66886;SDS011;67239;51.680;5.976;2023-03-23T05:49:26;6.78;;;1.80;;
66886;SDS011;67239;51.680;5.976;2023-03-23T05:51:53;7.07;;;1.45;;
66886;SDS011;67239;51.680;5.976;2023-03-23T05:54:20;4.68;;;1.45;;
66886;SDS011;67239;51.680;5.976;2023-03-23T05:56:48;8.00;;;1.67;;
66886;SDS011;67239;51.680;5.976;2023-03-23T05:59:35;5.53;;;1.80;;
66886;SDS011;67239;51.680;5.976;2023-03-23T06:02:03;11.10;;;1.85;;
66886;SDS011;67239;51.680;5.976;2023-03-23T06:04:29;5.43;;;1.65;;
66886;SDS011;67239;51.680;5.976;2023-03-23T06:07:06;3.58;;;1.77;;
66886;SDS011;67239;51.680;5.976;2023-03-23T06:09:38;7.97;;;1.58;;
66886;SDS011;67239;51.680;5.976;2023-03-23T06:12:38;6.97;;;1.75;;
66886;SDS011;67239;51.680;5.976;2023-03-23T06:15:44;6.70;;;2.10;;
66886;SDS011;67239;51.680;5.976;2023-03-23T06:18:13;4.97;;;2.00;;
66886;SDS011;67239;51.680;5.976;2023-03-23T06:20:58;6.70;;;1.70;;
66886;SDS011;67239;51.680;5.976;2023-03-23T06:23:45;5.18;;;1.90;;
66886;SDS011;67239;51.680;5.976;2023-03-23T06:26:15;5.40;;;1.75;;
66886;SDS011;67239;51.680;5.976;2023-03-23T06:28:46;7.55;;;2.10;;
66886;SDS011;67239;51.680;5.976;2023-03-23T06:31:13;4.15;;;1.92;;
66886;SDS011;67239;51.680;5.976;2023-03-23T06:33:40;4.72;;;2.10;;
66886;SDS011;67239;51.680;5.976;2023-03-23T06:36:24;6.83;;;2.13;;
66886;SDS011;67239;51.680;5.976;2023-03-23T06:39:24;5.72;;;2.08;;
66886;SDS011;67239;51.680;5.976;2023-03-23T06:42:03;6.68;;;2.35;;
66886;SDS011;67239;51.680;5.976;2023-03-23T06:44:34;4.47;;;1.92;;
66886;SDS011;67239;51.680;5.976;2023-03-23T06:47:00;8.48;;;1.95;;
66886;SDS011;67239;51.680;5.976;2023-03-23T06:49:32;8.10;;;2.45;;
66886;SDS011;67239;51.680;5.976;2023-03-23T06:52:09;6.38;;;2.10;;
66886;SDS011;67239;51.680;5.976;2023-03-23T06:54:35;7.07;;;2.03;;
66886;SDS011;67239;51.680;5.976;2023-03-23T06:57:02;8.57;;;2.50;;
66886;SDS011;67239;51.680;5.976;2023-03-23T06:59:28;7.53;;;1.85;;
66886;SDS011;67239;51.680;5.976;2023-03-23T07:01:54;8.80;;;2.08;;
66886;SDS011;67239;51.680;5.976;2023-03-23T07:04:20;9.30;;;2.33;;
66886;SDS011;67239;51.680;5.976;2023-03-23T07:06:55;7.57;;;1.60;;
66886;SDS011;67239;51.680;5.976;2023-03-23T07:09:22;7.57;;;2.15;;
66886;SDS011;67239;51.680;5.976;2023-03-23T07:11:49;9.38;;;2.63;;
66886;SDS011;67239;51.680;5.976;2023-03-23T07:14:30;7.70;;;2.05;;
66886;SDS011;67239;51.680;5.976;2023-03-23T07:16:57;4.88;;;1.92;;
66886;SDS011;67239;51.680;5.976;2023-03-23T07:19:24;6.55;;;1.60;;
66886;SDS011;67239;51.680;5.976;2023-03-23T07:21:50;6.22;;;1.70;;
66886;SDS011;67239;51.680;5.976;2023-03-23T07:24:19;4.97;;;1.48;;
66886;SDS011;67239;51.680;5.976;2023-03-23T07:27:05;7.22;;;2.65;;
66886;SDS011;67239;51.680;5.976;2023-03-23T07:29:32;5.15;;;1.60;;
66886;SDS011;67239;51.680;5.976;2023-03-23T07:32:09;5.35;;;1.67;;
66886;SDS011;67239;51.680;5.976;2023-03-23T07:34:37;5.25;;;1.70;;
66886;SDS011;67239;51.680;5.976;2023-03-23T07:37:18;7.53;;;2.08;;
66886;SDS011;67239;51.680;5.976;2023-03-23T07:39:47;6.03;;;1.48;;
66886;SDS011;67239;51.680;5.976;2023-03-23T07:42:14;6.07;;;1.70;;
66886;SDS011;67239;51.680;5.976;2023-03-23T07:44:46;6.80;;;1.63;;
66886;SDS011;67239;51.680;5.976;2023-03-23T07:47:13;6.10;;;1.73;;
66886;SDS011;67239;51.680;5.976;2023-03-23T07:49:40;7.65;;;1.55;;
66886;SDS011;67239;51.680;5.976;2023-03-23T07:52:15;5.18;;;1.35;;
66886;SDS011;67239;51.680;5.976;2023-03-23T07:54:41;6.45;;;2.20;;
66886;SDS011;67239;51.680;5.976;2023-03-23T07:57:16;7.05;;;1.80;;
66886;SDS011;67239;51.680;5.976;2023-03-23T07:59:48;7.03;;;1.67;;
66886;SDS011;67239;51.680;5.976;2023-03-23T08:02:14;4.72;;;1.45;;
66886;SDS011;67239;51.680;5.976;2023-03-23T08:04:51;2.20;;;1.17;;
66886;SDS011;67239;51.680;5.976;2023-03-23T08:07:42;3.83;;;1.13;;
66886;SDS011;67239;51.680;5.976;2023-03-23T08:10:35;4.57;;;1.23;;
66886;SDS011;67239;51.680;5.976;2023-03-23T08:13:28;3.72;;;1.10;;
66886;SDS011;67239;51.680;5.976;2023-03-23T08:16:10;2.83;;;0.70;;
66886;SDS011;67239;51.680;5.976;2023-03-23T08:18:59;2.92;;;0.93;;
66886;SDS011;67239;51.680;5.976;2023-03-23T08:21:46;5.88;;;1.10;;
66886;SDS011;67239;51.680;5.976;2023-03-23T08:24:36;3.17;;;0.70;;
66886;SDS011;67239;51.680;5.976;2023-03-23T08:27:14;2.05;;;0.80;;
66886;SDS011;67239;51.680;5.976;2023-03-23T08:29:51;1.60;;;1.00;;
66886;SDS011;67239;51.680;5.976;2023-03-23T08:32:43;3.90;;;0.75;;
66886;SDS011;67239;51.680;5.976;2023-03-23T08:35:26;3.25;;;0.90;;
66886;SDS011;67239;51.680;5.976;2023-03-23T08:37:59;2.88;;;0.80;;
66886;SDS011;67239;51.680;5.976;2023-03-23T08:40:52;5.80;;;0.70;;
66886;SDS011;67239;51.680;5.976;2023-03-23T08:43:42;1.50;;;0.60;;
66886;SDS011;67239;51.680;5.976;2023-03-23T08:46:14;5.15;;;0.60;;
66886;SDS011;67239;51.680;5.976;2023-03-23T08:48:59;1.38;;;0.60;;
66886;SDS011;67239;51.680;5.976;2023-03-23T08:51:44;3.35;;;0.65;;
66886;SDS011;67239;51.680;5.976;2023-03-23T08:54:16;2.72;;;0.82;;
66886;SDS011;67239;51.680;5.976;2023-03-23T08:56:42;2.75;;;0.68;;
66886;SDS011;67239;51.680;5.976;2023-03-23T08:59:09;4.47;;;0.80;;
66886;SDS011;67239;51.680;5.976;2023-03-23T09:01:42;4.38;;;1.10;;
66886;SDS011;67239;51.680;5.976;2023-03-23T09:04:40;2.58;;;0.88;;
66886;SDS011;67239;51.680;5.976;2023-03-23T09:07:22;3.33;;;1.00;;
66886;SDS011;67239;51.680;5.976;2023-03-23T09:09:49;3.35;;;1.00;;
66886;SDS011;67239;51.680;5.976;2023-03-23T09:12:15;3.53;;;1.20;;
66886;SDS011;67239;51.680;5.976;2023-03-23T09:14:42;4.10;;;0.90;;
66886;SDS011;67239;51.680;5.976;2023-03-23T09:17:08;7.35;;;1.10;;
66886;SDS011;67239;51.680;5.976;2023-03-23T09:19:34;7.57;;;1.48;;
66886;SDS011;67239;51.680;5.976;2023-03-23T09:22:01;24.95;;;2.80;;
66886;SDS011;67239;51.680;5.976;2023-03-23T09:24:29;7.70;;;1.30;;
66886;SDS011;67239;51.680;5.976;2023-03-23T09:26:56;6.40;;;1.20;;
66886;SDS011;67239;51.680;5.976;2023-03-23T09:29:24;5.95;;;0.93;;
66886;SDS011;67239;51.680;5.976;2023-03-23T09:31:55;11.93;;;1.58;;
66886;SDS011;67239;51.680;5.976;2023-03-23T09:34:21;7.70;;;1.30;;
66886;SDS011;67239;51.680;5.976;2023-03-23T09:36:48;4.75;;;0.85;;
66886;SDS011;67239;51.680;5.976;2023-03-23T09:39:15;5.45;;;1.00;;
66886;SDS011;67239;51.680;5.976;2023-03-23T09:41:54;6.97;;;1.27;;
66886;SDS011;67239;51.680;5.976;2023-03-23T09:50:12;3.00;;;0.93;;
66886;SDS011;67239;51.680;5.976;2023-03-23T09:52:54;3.50;;;0.73;;
66886;SDS011;67239;51.680;5.976;2023-03-23T09:55:35;5.07;;;0.80;;
66886;SDS011;67239;51.680;5.976;2023-03-23T09:58:49;5.07;;;0.68;;
66886;SDS011;67239;51.680;5.976;2023-03-23T10:01:14;4.30;;;0.90;;
66886;SDS011;67239;51.680;5.976;2023-03-23T10:03:56;4.97;;;0.80;;
66886;SDS011;67239;51.680;5.976;2023-03-23T10:06:32;3.42;;;0.80;;
66886;SDS011;67239;51.680;5.976;2023-03-23T10:08:59;2.95;;;0.70;;
66886;SDS011;67239;51.680;5.976;2023-03-23T10:11:35;4.88;;;0.80;;
66886;SDS011;67239;51.680;5.976;2023-03-23T10:28:37;5.53;;;1.25;;
66886;SDS011;67239;51.680;5.976;2023-03-23T10:37:18;6.95;;;1.20;;
66886;SDS011;67239;51.680;5.976;2023-03-23T10:39:53;4.35;;;1.38;;
66886;SDS011;67239;51.680;5.976;2023-03-23T10:42:26;4.25;;;1.17;;
66886;SDS011;67239;51.680;5.976;2023-03-23T10:44:57;4.95;;;0.80;;
66886;SDS011;67239;51.680;5.976;2023-03-23T10:47:26;2.67;;;0.82;;
66886;SDS011;67239;51.680;5.976;2023-03-23T10:50:01;2.47;;;0.90;;
66886;SDS011;67239;51.680;5.976;2023-03-23T10:55:10;3.38;;;0.93;;
66886;SDS011;67239;51.680;5.976;2023-03-23T10:57:44;5.32;;;1.10;;
66886;SDS011;67239;51.680;5.976;2023-03-23T11:00:24;4.97;;;2.05;;
66886;SDS011;67239;51.680;5.976;2023-03-23T11:08:28;5.32;;;0.90;;
66886;SDS011;67239;51.680;5.976;2023-03-23T11:11:11;5.93;;;1.23;;
66886;SDS011;67239;51.680;5.976;2023-03-23T11:13:58;4.00;;;1.20;;
66886;SDS011;67239;51.680;5.976;2023-03-23T11:16:34;5.15;;;1.10;;
66886;SDS011;67239;51.680;5.976;2023-03-23T11:19:15;6.30;;;1.30;;
66886;SDS011;67239;51.680;5.976;2023-03-23T11:22:18;4.20;;;1.30;;
66886;SDS011;67239;51.680;5.976;2023-03-23T11:25:09;3.40;;;0.98;;
66886;SDS011;67239;51.680;5.976;2023-03-23T11:27:39;3.88;;;1.40;;
66886;SDS011;67239;51.680;5.976;2023-03-23T11:32:53;4.35;;;1.20;;
66886;SDS011;67239;51.680;5.976;2023-03-23T11:35:26;4.32;;;1.23;;
66886;SDS011;67239;51.680;5.976;2023-03-23T11:37:55;3.25;;;1.20;;
66886;SDS011;67239;51.680;5.976;2023-03-23T11:40:25;5.63;;;1.00;;
66886;SDS011;67239;51.680;5.976;2023-03-23T11:43:07;2.78;;;0.82;;
66886;SDS011;67239;51.680;5.976;2023-03-23T11:51:33;3.92;;;1.30;;
66886;SDS011;67239;51.680;5.976;2023-03-23T11:57:09;5.00;;;1.10;;
66886;SDS011;67239;51.680;5.976;2023-03-23T11:59:39;5.13;;;1.13;;
66886;SDS011;67239;51.680;5.976;2023-03-23T12:07:36;6.05;;;1.20;;
66886;SDS011;67239;51.680;5.976;2023-03-23T12:16:38;5.15;;;1.00;;
66886;SDS011;67239;51.680;5.976;2023-03-23T12:24:29;5.70;;;1.27;;
66886;SDS011;67239;51.680;5.976;2023-03-23T12:27:07;3.33;;;1.00;;
66886;SDS011;67239;51.680;5.976;2023-03-23T12:41:50;11.82;;;1.13;;
66886;SDS011;67239;51.680;5.976;2023-03-23T12:48:04;5.88;;;1.08;;
66886;SDS011;67239;51.680;5.976;2023-03-23T12:50:40;3.53;;;1.20;;
66886;SDS011;67239;51.680;5.976;2023-03-23T12:53:21;6.50;;;1.20;;
66886;SDS011;67239;51.680;5.976;2023-03-23T12:59:06;10.13;;;1.42;;
66886;SDS011;67239;51.680;5.976;2023-03-23T13:01:45;4.38;;;1.00;;
66886;SDS011;67239;51.680;5.976;2023-03-23T13:04:25;6.05;;;1.20;;
66886;SDS011;67239;51.680;5.976;2023-03-23T13:07:01;8.43;;;1.40;;
66886;SDS011;67239;51.680;5.976;2023-03-23T13:09:42;6.40;;;1.35;;
66886;SDS011;67239;51.680;5.976;2023-03-23T13:12:15;4.95;;;1.38;;
66886;SDS011;67239;51.680;5.976;2023-03-23T13:14:56;6.88;;;1.40;;
66886;SDS011;67239;51.680;5.976;2023-03-23T13:18:04;6.80;;;1.30;;
66886;SDS011;67239;51.680;5.976;2023-03-23T13:23:52;9.90;;;1.25;;
66886;SDS011;67239;51.680;5.976;2023-03-23T13:26:25;6.00;;;1.27;;
66886;SDS011;67239;51.680;5.976;2023-03-23T13:29:05;9.55;;;1.10;;
66886;SDS011;67239;51.680;5.976;2023-03-23T13:31:39;8.05;;;1.20;;
66886;SDS011;67239;51.680;5.976;2023-03-23T13:34:23;7.05;;;1.20;;
66886;SDS011;67239;51.680;5.976;2023-03-23T13:37:00;7.43;;;1.20;;
66886;SDS011;67239;51.680;5.976;2023-03-23T13:42:16;3.45;;;1.20;;
66886;SDS011;67239;51.680;5.976;2023-03-23T14:03:11;4.28;;;1.20;;
66886;SDS011;67239;51.680;5.976;2023-03-23T14:06:01;6.63;;;1.60;;
66886;SDS011;67239;51.680;5.976;2023-03-23T14:08:45;5.18;;;1.15;;
66886;SDS011;67239;51.680;5.976;2023-03-23T14:11:24;4.43;;;1.30;;
66886;SDS011;67239;51.680;5.976;2023-03-23T14:14:04;8.40;;;1.52;;
66886;SDS011;67239;51.680;5.976;2023-03-23T14:16:37;6.72;;;1.55;;
66886;SDS011;67239;51.680;5.976;2023-03-23T14:19:15;6.70;;;1.40;;
66886;SDS011;67239;51.680;5.976;2023-03-23T14:21:55;5.95;;;1.70;;
66886;SDS011;67239;51.680;5.976;2023-03-23T14:24:25;4.38;;;1.50;;
66886;SDS011;67239;51.680;5.976;2023-03-23T14:29:41;5.35;;;1.52;;
66886;SDS011;67239;51.680;5.976;2023-03-23T14:32:12;7.68;;;1.70;;
66886;SDS011;67239;51.680;5.976;2023-03-23T14:34:43;8.05;;;1.90;;
66886;SDS011;67239;51.680;5.976;2023-03-23T14:37:14;7.65;;;1.80;;
66886;SDS011;67239;51.680;5.976;2023-03-23T14:39:46;8.57;;;1.73;;
66886;SDS011;67239;51.680;5.976;2023-03-23T14:42:36;6.25;;;1.45;;
66886;SDS011;67239;51.680;5.976;2023-03-23T14:45:04;5.95;;;1.80;;
66886;SDS011;67239;51.680;5.976;2023-03-23T14:47:36;6.35;;;1.75;;
66886;SDS011;67239;51.680;5.976;2023-03-23T14:53:26;6.97;;;1.73;;
66886;SDS011;67239;51.680;5.976;2023-03-23T14:56:02;5.53;;;1.70;;
66886;SDS011;67239;51.680;5.976;2023-03-23T14:58:36;6.15;;;1.50;;
66886;SDS011;67239;51.680;5.976;2023-03-23T15:01:08;5.82;;;1.27;;
66886;SDS011;67239;51.680;5.976;2023-03-23T15:03:40;6.50;;;1.48;;
66886;SDS011;67239;51.680;5.976;2023-03-23T15:06:33;4.85;;;1.40;;
66886;SDS011;67239;51.680;5.976;2023-03-23T15:09:04;7.93;;;2.10;;
66886;SDS011;67239;51.680;5.976;2023-03-23T15:11:39;5.50;;;2.00;;
66886;SDS011;67239;51.680;5.976;2023-03-23T15:16:47;5.00;;;2.13;;
66886;SDS011;67239;51.680;5.976;2023-03-23T15:19:19;5.90;;;2.08;;
66886;SDS011;67239;51.680;5.976;2023-03-23T15:21:51;6.85;;;1.85;;
66886;SDS011;67239;51.680;5.976;2023-03-23T15:24:33;7.35;;;2.28;;
66886;SDS011;67239;51.680;5.976;2023-03-23T15:27:25;5.65;;;1.73;;
66886;SDS011;67239;51.680;5.976;2023-03-23T15:29:53;3.35;;;1.40;;
66886;SDS011;67239;51.680;5.976;2023-03-23T15:32:24;2.85;;;1.50;;
66886;SDS011;67239;51.680;5.976;2023-03-23T15:34:54;3.88;;;1.40;;
66886;SDS011;67239;51.680;5.976;2023-03-23T15:37:30;5.13;;;1.52;;
66886;SDS011;67239;51.680;5.976;2023-03-23T15:39:58;10.00;;;2.05;;
66886;SDS011;67239;51.680;5.976;2023-03-23T15:42:27;6.90;;;1.40;;
66886;SDS011;67239;51.680;5.976;2023-03-23T15:50:14;4.43;;;1.40;;
66886;SDS011;67239;51.680;5.976;2023-03-23T15:53:01;6.90;;;1.67;;
66886;SDS011;67239;51.680;5.976;2023-03-23T15:55:49;5.43;;;1.50;;
66886;SDS011;67239;51.680;5.976;2023-03-23T15:58:15;7.00;;;1.80;;
66886;SDS011;67239;51.680;5.976;2023-03-23T16:00:42;8.48;;;1.90;;
66886;SDS011;67239;51.680;5.976;2023-03-23T16:03:12;8.38;;;2.10;;
66886;SDS011;67239;51.680;5.976;2023-03-23T16:05:48;6.93;;;2.25;;
66886;SDS011;67239;51.680;5.976;2023-03-23T16:08:16;9.85;;;2.97;;
66886;SDS011;67239;51.680;5.976;2023-03-23T16:10:43;7.43;;;2.17;;
66886;SDS011;67239;51.680;5.976;2023-03-23T16:13:11;6.15;;;2.35;;
66886;SDS011;67239;51.680;5.976;2023-03-23T16:15:38;8.13;;;2.92;;
66886;SDS011;67239;51.680;5.976;2023-03-23T16:18:06;9.20;;;2.83;;
66886;SDS011;67239;51.680;5.976;2023-03-23T16:20:33;7.22;;;2.30;;
66886;SDS011;67239;51.680;5.976;2023-03-23T16:23:00;6.82;;;2.90;;
66886;SDS011;67239;51.680;5.976;2023-03-23T16:25:27;6.80;;;2.67;;
66886;SDS011;67239;51.680;5.976;2023-03-23T16:27:54;7.25;;;2.53;;
66886;SDS011;67239;51.680;5.976;2023-03-23T16:30:25;9.70;;;2.72;;
66886;SDS011;67239;51.680;5.976;2023-03-23T16:32:54;7.75;;;2.92;;
66886;SDS011;67239;51.680;5.976;2023-03-23T16:35:23;9.30;;;2.90;;
66886;SDS011;67239;51.680;5.976;2023-03-23T16:37:52;10.45;;;3.05;;
66886;SDS011;67239;51.680;5.976;2023-03-23T16:40:35;7.60;;;2.90;;
66886;SDS011;67239;51.680;5.976;2023-03-23T16:43:03;9.68;;;2.40;;
66886;SDS011;67239;51.680;5.976;2023-03-23T16:45:39;7.57;;;2.47;;
66886;SDS011;67239;51.680;5.976;2023-03-23T16:48:10;8.30;;;2.65;;
66886;SDS011;67239;51.680;5.976;2023-03-23T16:50:40;5.60;;;2.10;;
66886;SDS011;67239;51.680;5.976;2023-03-23T16:53:08;5.72;;;1.80;;
66886;SDS011;67239;51.680;5.976;2023-03-23T16:55:36;7.10;;;2.53;;
66886;SDS011;67239;51.680;5.976;2023-03-23T16:58:04;6.65;;;2.25;;
66886;SDS011;67239;51.680;5.976;2023-03-23T17:00:43;6.97;;;1.90;;
66886;SDS011;67239;51.680;5.976;2023-03-23T17:03:16;8.23;;;2.70;;
66886;SDS011;67239;51.680;5.976;2023-03-23T17:05:46;7.10;;;2.42;;
66886;SDS011;67239;51.680;5.976;2023-03-23T17:08:18;7.03;;;2.20;;
66886;SDS011;67239;51.680;5.976;2023-03-23T17:10:47;7.78;;;2.13;;
66886;SDS011;67239;51.680;5.976;2023-03-23T17:13:15;6.57;;;2.75;;
66886;SDS011;67239;51.680;5.976;2023-03-23T17:15:43;8.75;;;2.13;;
66886;SDS011;67239;51.680;5.976;2023-03-23T17:18:13;8.15;;;2.40;;
66886;SDS011;67239;51.680;5.976;2023-03-23T17:20:42;9.65;;;2.85;;
66886;SDS011;67239;51.680;5.976;2023-03-23T17:23:09;11.55;;;2.90;;
66886;SDS011;67239;51.680;5.976;2023-03-23T17:25:37;8.60;;;2.60;;
66886;SDS011;67239;51.680;5.976;2023-03-23T17:28:04;11.02;;;2.55;;
66886;SDS011;67239;51.680;5.976;2023-03-23T17:30:33;7.40;;;2.38;;
66886;SDS011;67239;51.680;5.976;2023-03-23T17:33:01;8.65;;;2.60;;
66886;SDS011;67239;51.680;5.976;2023-03-23T17:35:28;8.88;;;3.05;;
66886;SDS011;67239;51.680;5.976;2023-03-23T17:37:56;8.00;;;2.28;;
66886;SDS011;67239;51.680;5.976;2023-03-23T17:40:23;9.45;;;2.97;;
66886;SDS011;67239;51.680;5.976;2023-03-23T17:42:50;10.48;;;3.17;;
66886;SDS011;67239;51.680;5.976;2023-03-23T17:45:18;6.05;;;2.42;;